aviador You're here:

OERK Decoded Metar

RIYADH in SAUDI ARABIA
Report Time2017-08-21 13:00:00
UTC Time2017-08-21 13:55:36
Flight Rules vfr VFR
Wind030° at 10 kt
W.Decomp.*RWY 33: 5.3 kt HW 8.5 kt RCW
W.Rank030° ranks 5
Current wind is above 030° avg. (7.2)
Visibility9999 m
Phenomena:N/A
Clouds:N/A
Expected CloudBase > 19,200 ft AGL from Temp-Dew spread
CeilingNone
Temp43°C (ISA +32)
Dew Point-5°C (5% RH)
Heat Index38.7°C
AAT36.8°C
QNH1003 hPa
Density Alt5,955 ft
Elevation2,008 ft
Report Wrong Elevation
Raw Report
METAR OERK 211300Z 03010KT CAVOK 43/M05 Q1003 NOSIG=

Extra information for OERK:More info

Metar Taf Metar & Taf Last 4 Metars F.Rules Stats Wind Profile Meteogram Temp Stats Airport Information Weather charts Add Link Nearby VenuesMetar ALERT Operation Metar Decoded Social comments